Terrell, TX

10:39 PM CDT on July 04, 2015 (GMT -0500)
APRSWXNET | | Change Station
CLOSE
Current Station
Personal Weather Station
Location: Terrell, TX
Elevation: 505 ft
Nearby Weather Stations

Elev 505 ft 32.80 °N, 96.30 °W | Updated 34 minutes ago

Clear
Clear
82 °F
Feels Like 88 °F
N
4
Wind Variable Wind from South
Gusts 8.0 mph

Today
High -- | Low -- °F
--% Chance of Precip.
Yesterday
High -- | Low -- °F
Precip. -- in
6:22 AM 8:37 PM
Waning Gibbous, 88% visible
Pressure 29.93 in
Visibility 10.0 miles
Clouds Clear
Heat Index 88 °F
Dew Point 74 °F
Humidity 78%
Rainfall in
Snow Depth Not available.
UV 0 out of 12
Pollen 3.00 out of 12
Air Quality Not available.
Flu Activity Not available.
METAR KTRL 050253Z AUTO 17006KT 10SM CLR 28/23 A2995 RMK AO2 SLP134 T02780233 53013

More Conditions Fewer Conditions

Pressure 29.93 in
Visibility 10.0 miles
Clouds Clear
Heat Index 88 °F
Dew Point 74 °F
Humidity 78%
Rainfall in
Snow Depth Not available.
UV 0 out of 12
Pollen 3.00 out of 12
Air Quality Not available.
Flu Activity Not available.
METAR KTRL 050253Z AUTO 17006KT 10SM CLR 28/23 A2995 RMK AO2 SLP134 T02780233 53013

More Conditions Fewer Conditions

Nowcast | as of 9:56 PM CDT on July 4, 2015

Scattered showers and thunderstorms east of a line from Pauls Valley Oklahoma to Sherman to Sulphur Springs will continue to move southeast at 15 mph. Cloud to ground lightning will accompany some of these storms as they slowly weaken through midnight. Rainfall amounts will average less than 1/2 inch. Otherwise...partly cloudy skies and humid conditions across north and central Texas through 1 am. Temperatures will fall into the 70s areawide by 1 am.

×

10-Day Weather Forecast

×

Almanac

Astronomy

Jul. 04, 2015 Rise Set
Actual Time
Civil Twilight
Nautical Twilight
Astronomical Twilight
Moon
Length of Visible Light
Length of Day
Tomorrow will be .
, % of the Moon is Illuminated

Today's Extremes

State Highs State Lows

Community

WunderPhotos

Upload Photos

1,835,182 photos uploaded!

WunderBlogs® & News

Nearby

Air Quality

  Air Quality AQ Index Pollutant
Not available.

Snow Depth

Station Depth Elevation

Earthquake Activity

City Distance Mag. Time & Date
Minimum magnitude displayed is 2.5.

Coastal Water Temperatures

Place Temperature

Stations

Nearby Weather Stations

Station Location Temp. Windchill Dew Point Humidity Wind Precip. Elev Updated Type